Maldives Meteorological Service

TAFS

Station TAF
VRMM
VRMM 240500Z 2406/2512 32007KT 9999 FEW018 TEMPO 2409/2415 FEW018CB=
VRMH
VRMH 240500Z 2406/2506 28009KT 9999 FEW018=
VRMK
VRMK 240500Z 2406/2506 27007KT 9999 FEW018 TEMPO 2406/2412 6000 –SHRA FEW018CB=
VRMT
VRMT 240500Z 2406/2506 23007KT 9999 FEW018=
VRMG
VRMG 240500Z 2406/2512 25005KT 9999 FEW018=